OINN  Noshahr  Airport

Iran

Add Bookmark
ICAO OINN
IATA NSH
Type Airport
Status Operational
Latitude
36° 39' 47" N
36.663300
Longitude
51° 27' 52" E
51.464699
Local (GMT +3.5 ) UTC
Sep 30, 2016 08:18 pm Sep 30, 2016 16:48
Sunrise-Sunset Local UTC
Begin Civil Twilight 05:32 am 02:02
Sunrise 05:57 am 02:27
Sunset 05:49 pm 14:19
End Civil Twilight 06:15 pm 14:45
VFR
VFR
MVFR
MVFR
IFR
IFR
LIFR
LIFR
Unknown
Unavailable

Current Weather

METAR Observed MVFR
OINN 301600Z 16006KT 9999 FEW022CB BKN027 BKN090 20/13 Q1016 Fri, Sep 30, 2016 @ 16:00 UTC
(48 Minutes ago)
Marginal Visual Flight Rules
Wind Visibility Clouds Conditions
160° at 6 knots (11 kph) 10 km or more
  • Few at 2,200 ft AGL
  • Broken at 2,700 ft AGL
  • Broken at 9,000 ft AGL
  • No significant weather
Temperatures Readings Precipitation
Current Temp
20°C
68°F
Dewpoint
13°C
55°F
Humidity 64%
Altimeter 30" Hg
Sea Level Pressure 1,016 mb
None Recorded

Additional weather within a 92.6km radius of OINN

Map ICAO Location
OINR 75km W/NW (292°)
VFR
VFR
MVFR
MVFR
IFR
IFR
LIFR
LIFR
Unknown
Unavailable
-
-

CheckWX.com is intended as a tool to help pilots better visualize weather data. It is not intended as a substitute for an official weather briefing obtained from a Flight Service Station. CheckWX.com does not meet the FAA requirements for an official pre-flight weather briefing. Therefore, it's important that pilots still call and obtain an official FSS pre-flight weather briefing.

© 2007-2016 CheckWX.com
16:48:30 UTC